sensor_id;sensor_type;location;lat;lon;timestamp;temperature;humidity
13256;DHT22;37913;48.370;10.930;2023-04-03T00:01:40;3.10;99.90
13256;DHT22;37913;48.370;10.930;2023-04-03T00:04:07;3.10;99.90
13256;DHT22;37913;48.370;10.930;2023-04-03T00:06:34;3.10;99.90
13256;DHT22;37913;48.370;10.930;2023-04-03T00:09:02;3.00;99.90
13256;DHT22;37913;48.370;10.930;2023-04-03T00:11:28;3.00;99.90
13256;DHT22;37913;48.370;10.930;2023-04-03T00:13:55;3.00;99.90
13256;DHT22;37913;48.370;10.930;2023-04-03T00:16:23;3.00;99.90
13256;DHT22;37913;48.370;10.930;2023-04-03T00:18:51;3.00;99.90
13256;DHT22;37913;48.370;10.930;2023-04-03T00:21:18;3.00;99.90
13256;DHT22;37913;48.370;10.930;2023-04-03T00:23:45;3.00;99.90
13256;DHT22;37913;48.370;10.930;2023-04-03T00:26:12;2.90;99.90
13256;DHT22;37913;48.370;10.930;2023-04-03T00:28:39;2.90;99.90
13256;DHT22;37913;48.370;10.930;2023-04-03T00:31:05;2.90;99.90
13256;DHT22;37913;48.370;10.930;2023-04-03T00:33:32;3.10;99.90
13256;DHT22;37913;48.370;10.930;2023-04-03T00:36:05;2.90;99.90
13256;DHT22;37913;48.370;10.930;2023-04-03T00:38:32;2.90;99.90
13256;DHT22;37913;48.370;10.930;2023-04-03T00:40:59;2.90;99.90
13256;DHT22;37913;48.370;10.930;2023-04-03T00:43:26;2.80;99.90
13256;DHT22;37913;48.370;10.930;2023-04-03T00:45:54;2.80;99.90
13256;DHT22;37913;48.370;10.930;2023-04-03T00:48:23;2.80;99.90
13256;DHT22;37913;48.370;10.930;2023-04-03T00:50:52;2.80;99.90
13256;DHT22;37913;48.370;10.930;2023-04-03T00:53:23;3.10;99.90
13256;DHT22;37913;48.370;10.930;2023-04-03T00:55:51;2.80;99.90
13256;DHT22;37913;48.370;10.930;2023-04-03T00:58:20;2.80;99.90
13256;DHT22;37913;48.370;10.930;2023-04-03T01:00:52;2.70;99.90
13256;DHT22;37913;48.370;10.930;2023-04-03T01:03:23;2.80;99.90
13256;DHT22;37913;48.370;10.930;2023-04-03T01:05:50;2.80;99.90
13256;DHT22;37913;48.370;10.930;2023-04-03T01:08:17;2.80;99.90
13256;DHT22;37913;48.370;10.930;2023-04-03T01:10:45;2.80;99.90
13256;DHT22;37913;48.370;10.930;2023-04-03T01:13:24;2.90;99.90
13256;DHT22;37913;48.370;10.930;2023-04-03T01:15:52;2.80;99.90
13256;DHT22;37913;48.370;10.930;2023-04-03T01:18:19;2.80;99.90
13256;DHT22;37913;48.370;10.930;2023-04-03T01:21:10;2.80;99.90
13256;DHT22;37913;48.370;10.930;2023-04-03T01:23:49;2.70;99.90
13256;DHT22;37913;48.370;10.930;2023-04-03T01:26:19;2.80;99.90
13256;DHT22;37913;48.370;10.930;2023-04-03T01:28:46;2.80;99.90
13256;DHT22;37913;48.370;10.930;2023-04-03T01:31:19;2.80;99.90
13256;DHT22;37913;48.370;10.930;2023-04-03T01:33:48;2.80;99.90
13256;DHT22;37913;48.370;10.930;2023-04-03T01:36:18;2.80;99.90
13256;DHT22;37913;48.370;10.930;2023-04-03T01:38:46;2.80;99.90
13256;DHT22;37913;48.370;10.930;2023-04-03T01:41:13;2.80;99.90
13256;DHT22;37913;48.370;10.930;2023-04-03T01:43:41;2.80;99.90
13256;DHT22;37913;48.370;10.930;2023-04-03T01:46:08;2.70;99.90
13256;DHT22;37913;48.370;10.930;2023-04-03T01:48:34;2.70;99.90
13256;DHT22;37913;48.370;10.930;2023-04-03T01:51:03;2.70;99.90
13256;DHT22;37913;48.370;10.930;2023-04-03T01:53:30;2.70;99.90
13256;DHT22;37913;48.370;10.930;2023-04-03T01:55:57;2.70;99.90
13256;DHT22;37913;48.370;10.930;2023-04-03T01:58:24;2.70;99.90
13256;DHT22;37913;48.370;10.930;2023-04-03T02:00:51;2.70;99.90
13256;DHT22;37913;48.370;10.930;2023-04-03T02:03:18;2.70;99.90
13256;DHT22;37913;48.370;10.930;2023-04-03T02:05:45;2.70;99.90
13256;DHT22;37913;48.370;10.930;2023-04-03T02:08:13;2.70;99.90
13256;DHT22;37913;48.370;10.930;2023-04-03T02:10:43;2.70;99.90
13256;DHT22;37913;48.370;10.930;2023-04-03T02:13:10;2.60;99.90
13256;DHT22;37913;48.370;10.930;2023-04-03T02:15:38;2.60;99.90
13256;DHT22;37913;48.370;10.930;2023-04-03T02:18:05;2.70;99.90
13256;DHT22;37913;48.370;10.930;2023-04-03T02:20:32;2.70;99.90
13256;DHT22;37913;48.370;10.930;2023-04-03T02:23:00;2.70;99.90
13256;DHT22;37913;48.370;10.930;2023-04-03T02:25:29;2.70;99.90
13256;DHT22;37913;48.370;10.930;2023-04-03T02:27:56;3.50;99.90
13256;DHT22;37913;48.370;10.930;2023-04-03T02:30:23;2.70;99.90
13256;DHT22;37913;48.370;10.930;2023-04-03T02:32:50;2.60;99.90
13256;DHT22;37913;48.370;10.930;2023-04-03T02:35:17;2.70;99.90
13256;DHT22;37913;48.370;10.930;2023-04-03T02:37:44;2.60;99.90
13256;DHT22;37913;48.370;10.930;2023-04-03T02:40:11;2.70;99.90
13256;DHT22;37913;48.370;10.930;2023-04-03T02:42:39;2.70;99.90
13256;DHT22;37913;48.370;10.930;2023-04-03T02:45:07;2.70;99.90
13256;DHT22;37913;48.370;10.930;2023-04-03T02:47:34;2.70;99.90
13256;DHT22;37913;48.370;10.930;2023-04-03T02:50:01;2.70;99.90
13256;DHT22;37913;48.370;10.930;2023-04-03T02:52:28;2.70;99.90
13256;DHT22;37913;48.370;10.930;2023-04-03T02:54:55;2.60;99.90
13256;DHT22;37913;48.370;10.930;2023-04-03T02:57:22;2.60;99.90
13256;DHT22;37913;48.370;10.930;2023-04-03T02:59:50;2.60;99.90
13256;DHT22;37913;48.370;10.930;2023-04-03T03:02:17;2.60;99.90
13256;DHT22;37913;48.370;10.930;2023-04-03T03:04:45;2.60;99.90
13256;DHT22;37913;48.370;10.930;2023-04-03T03:07:12;2.60;99.90
13256;DHT22;37913;48.370;10.930;2023-04-03T03:09:39;2.50;99.90
13256;DHT22;37913;48.370;10.930;2023-04-03T03:12:06;2.50;99.90
13256;DHT22;37913;48.370;10.930;2023-04-03T03:14:33;2.50;99.90
13256;DHT22;37913;48.370;10.930;2023-04-03T03:17:01;2.50;99.90
13256;DHT22;37913;48.370;10.930;2023-04-03T03:19:28;2.50;99.90
13256;DHT22;37913;48.370;10.930;2023-04-03T03:21:55;2.90;99.90
13256;DHT22;37913;48.370;10.930;2023-04-03T03:24:22;2.60;99.90
13256;DHT22;37913;48.370;10.930;2023-04-03T03:26:49;2.60;99.90
13256;DHT22;37913;48.370;10.930;2023-04-03T03:29:16;2.80;99.90
13256;DHT22;37913;48.370;10.930;2023-04-03T03:31:43;2.60;99.90
13256;DHT22;37913;48.370;10.930;2023-04-03T03:34:11;2.50;99.90
13256;DHT22;37913;48.370;10.930;2023-04-03T03:36:38;3.10;99.90
13256;DHT22;37913;48.370;10.930;2023-04-03T03:39:05;2.50;99.90
13256;DHT22;37913;48.370;10.930;2023-04-03T03:41:32;2.50;99.90
13256;DHT22;37913;48.370;10.930;2023-04-03T03:43:59;2.50;99.90
13256;DHT22;37913;48.370;10.930;2023-04-03T03:46:26;2.50;99.90
13256;DHT22;37913;48.370;10.930;2023-04-03T03:48:53;2.40;99.90
13256;DHT22;37913;48.370;10.930;2023-04-03T03:51:21;2.60;99.90
13256;DHT22;37913;48.370;10.930;2023-04-03T03:53:48;2.40;99.90
13256;DHT22;37913;48.370;10.930;2023-04-03T03:56:15;2.30;99.90
13256;DHT22;37913;48.370;10.930;2023-04-03T03:58:42;2.50;99.90
13256;DHT22;37913;48.370;10.930;2023-04-03T04:01:09;2.40;99.90
13256;DHT22;37913;48.370;10.930;2023-04-03T04:03:36;2.40;99.90
13256;DHT22;37913;48.370;10.930;2023-04-03T04:06:03;2.40;99.90
13256;DHT22;37913;48.370;10.930;2023-04-03T04:08:31;2.40;99.90
13256;DHT22;37913;48.370;10.930;2023-04-03T04:10:58;2.40;99.90
13256;DHT22;37913;48.370;10.930;2023-04-03T04:13:25;2.50;99.90
13256;DHT22;37913;48.370;10.930;2023-04-03T04:15:52;2.40;99.90
13256;DHT22;37913;48.370;10.930;2023-04-03T04:18:19;2.40;99.90
13256;DHT22;37913;48.370;10.930;2023-04-03T04:20:48;2.40;99.90
13256;DHT22;37913;48.370;10.930;2023-04-03T04:23:15;2.40;99.90
13256;DHT22;37913;48.370;10.930;2023-04-03T04:25:45;2.40;99.90
13256;DHT22;37913;48.370;10.930;2023-04-03T04:28:12;2.40;99.90
13256;DHT22;37913;48.370;10.930;2023-04-03T04:30:39;2.40;99.90
13256;DHT22;37913;48.370;10.930;2023-04-03T04:33:06;2.30;99.90
13256;DHT22;37913;48.370;10.930;2023-04-03T04:35:33;2.40;99.90
13256;DHT22;37913;48.370;10.930;2023-04-03T04:38:00;2.30;99.90
13256;DHT22;37913;48.370;10.930;2023-04-03T04:40:28;2.40;99.90
13256;DHT22;37913;48.370;10.930;2023-04-03T04:42:56;2.40;99.90
13256;DHT22;37913;48.370;10.930;2023-04-03T04:45:23;2.30;99.90
13256;DHT22;37913;48.370;10.930;2023-04-03T04:47:50;2.30;99.90
13256;DHT22;37913;48.370;10.930;2023-04-03T04:50:18;2.30;99.90
13256;DHT22;37913;48.370;10.930;2023-04-03T04:52:45;2.30;99.90
13256;DHT22;37913;48.370;10.930;2023-04-03T04:55:12;2.20;99.90
13256;DHT22;37913;48.370;10.930;2023-04-03T04:57:39;2.30;99.90
13256;DHT22;37913;48.370;10.930;2023-04-03T05:00:08;2.30;99.90
13256;DHT22;37913;48.370;10.930;2023-04-03T05:02:37;2.30;99.90
13256;DHT22;37913;48.370;10.930;2023-04-03T05:05:05;2.30;99.90
13256;DHT22;37913;48.370;10.930;2023-04-03T05:07:32;2.30;99.90
13256;DHT22;37913;48.370;10.930;2023-04-03T05:09:59;2.50;99.90
13256;DHT22;37913;48.370;10.930;2023-04-03T05:12:25;2.30;99.90
13256;DHT22;37913;48.370;10.930;2023-04-03T05:14:52;2.30;99.90
13256;DHT22;37913;48.370;10.930;2023-04-03T05:17:21;2.40;99.90
13256;DHT22;37913;48.370;10.930;2023-04-03T05:19:47;2.40;99.90
13256;DHT22;37913;48.370;10.930;2023-04-03T05:22:14;2.40;99.90
13256;DHT22;37913;48.370;10.930;2023-04-03T05:24:41;2.40;99.90
13256;DHT22;37913;48.370;10.930;2023-04-03T05:27:08;2.40;99.90
13256;DHT22;37913;48.370;10.930;2023-04-03T05:29:35;2.40;99.90
13256;DHT22;37913;48.370;10.930;2023-04-03T05:32:02;2.50;99.90
13256;DHT22;37913;48.370;10.930;2023-04-03T05:34:30;2.50;99.90
13256;DHT22;37913;48.370;10.930;2023-04-03T05:36:58;2.50;99.90
13256;DHT22;37913;48.370;10.930;2023-04-03T05:39:26;2.50;99.90
13256;DHT22;37913;48.370;10.930;2023-04-03T05:41:53;2.50;99.90
13256;DHT22;37913;48.370;10.930;2023-04-03T05:44:20;2.60;99.90
13256;DHT22;37913;48.370;10.930;2023-04-03T05:46:47;2.60;99.90
13256;DHT22;37913;48.370;10.930;2023-04-03T05:49:14;2.60;99.90
13256;DHT22;37913;48.370;10.930;2023-04-03T05:51:43;2.60;99.90
13256;DHT22;37913;48.370;10.930;2023-04-03T05:54:14;2.60;99.90
13256;DHT22;37913;48.370;10.930;2023-04-03T05:56:42;2.90;99.90
13256;DHT22;37913;48.370;10.930;2023-04-03T05:59:10;2.70;99.90
13256;DHT22;37913;48.370;10.930;2023-04-03T06:01:37;2.70;99.90
13256;DHT22;37913;48.370;10.930;2023-04-03T06:04:04;2.70;99.90
13256;DHT22;37913;48.370;10.930;2023-04-03T06:06:47;2.80;99.90
13256;DHT22;37913;48.370;10.930;2023-04-03T06:09:14;2.80;99.90
13256;DHT22;37913;48.370;10.930;2023-04-03T06:11:42;2.90;99.90
13256;DHT22;37913;48.370;10.930;2023-04-03T06:14:09;3.00;99.90
13256;DHT22;37913;48.370;10.930;2023-04-03T06:16:36;3.00;99.90
13256;DHT22;37913;48.370;10.930;2023-04-03T06:19:03;3.00;99.90
13256;DHT22;37913;48.370;10.930;2023-04-03T06:21:32;3.10;99.90
13256;DHT22;37913;48.370;10.930;2023-04-03T06:24:02;3.00;99.90
13256;DHT22;37913;48.370;10.930;2023-04-03T06:26:30;3.00;99.90
13256;DHT22;37913;48.370;10.930;2023-04-03T06:28:57;3.10;99.90
13256;DHT22;37913;48.370;10.930;2023-04-03T06:31:24;3.00;99.90
13256;DHT22;37913;48.370;10.930;2023-04-03T06:33:51;3.10;99.90
13256;DHT22;37913;48.370;10.930;2023-04-03T06:36:19;3.30;99.90
13256;DHT22;37913;48.370;10.930;2023-04-03T06:38:46;3.80;99.90
13256;DHT22;37913;48.370;10.930;2023-04-03T06:41:15;3.50;99.90
13256;DHT22;37913;48.370;10.930;2023-04-03T06:43:43;3.40;99.90
13256;DHT22;37913;48.370;10.930;2023-04-03T06:46:14;3.50;99.90
13256;DHT22;37913;48.370;10.930;2023-04-03T06:48:42;3.90;99.90
13256;DHT22;37913;48.370;10.930;2023-04-03T06:51:16;3.90;99.90
13256;DHT22;37913;48.370;10.930;2023-04-03T06:53:45;4.00;99.90
13256;DHT22;37913;48.370;10.930;2023-04-03T06:56:12;4.20;99.90
13256;DHT22;37913;48.370;10.930;2023-04-03T06:58:42;4.40;99.90
13256;DHT22;37913;48.370;10.930;2023-04-03T07:01:10;4.60;99.90
13256;DHT22;37913;48.370;10.930;2023-04-03T07:03:38;4.70;99.90
13256;DHT22;37913;48.370;10.930;2023-04-03T07:06:08;5.10;99.90
13256;DHT22;37913;48.370;10.930;2023-04-03T07:08:37;5.00;99.90
13256;DHT22;37913;48.370;10.930;2023-04-03T07:11:04;5.00;99.90
13256;DHT22;37913;48.370;10.930;2023-04-03T07:13:32;5.10;99.90
13256;DHT22;37913;48.370;10.930;2023-04-03T07:16:00;5.20;99.90
13256;DHT22;37913;48.370;10.930;2023-04-03T07:18:30;5.20;99.90
13256;DHT22;37913;48.370;10.930;2023-04-03T07:20:57;5.30;99.90
13256;DHT22;37913;48.370;10.930;2023-04-03T07:23:24;5.20;99.90
13256;DHT22;37913;48.370;10.930;2023-04-03T07:25:52;5.30;99.90
13256;DHT22;37913;48.370;10.930;2023-04-03T07:28:20;5.20;99.90
13256;DHT22;37913;48.370;10.930;2023-04-03T07:30:49;5.10;99.90
13256;DHT22;37913;48.370;10.930;2023-04-03T07:33:19;5.10;99.90
13256;DHT22;37913;48.370;10.930;2023-04-03T07:35:47;5.10;99.90
13256;DHT22;37913;48.370;10.930;2023-04-03T07:38:15;5.30;99.90
13256;DHT22;37913;48.370;10.930;2023-04-03T07:40:46;4.90;99.90
13256;DHT22;37913;48.370;10.930;2023-04-03T07:43:13;4.90;99.90
13256;DHT22;37913;48.370;10.930;2023-04-03T07:45:41;4.90;99.90
13256;DHT22;37913;48.370;10.930;2023-04-03T07:48:08;4.80;99.90
13256;DHT22;37913;48.370;10.930;2023-04-03T07:50:39;5.00;99.90
13256;DHT22;37913;48.370;10.930;2023-04-03T07:53:07;5.20;99.90
13256;DHT22;37913;48.370;10.930;2023-04-03T07:55:36;5.30;99.90
13256;DHT22;37913;48.370;10.930;2023-04-03T07:58:08;5.20;99.90
13256;DHT22;37913;48.370;10.930;2023-04-03T08:00:36;5.30;99.90
13256;DHT22;37913;48.370;10.930;2023-04-03T08:03:03;5.30;99.90
13256;DHT22;37913;48.370;10.930;2023-04-03T08:05:36;5.50;99.90
13256;DHT22;37913;48.370;10.930;2023-04-03T08:08:04;5.70;99.90
13256;DHT22;37913;48.370;10.930;2023-04-03T08:10:32;5.90;99.90
13256;DHT22;37913;48.370;10.930;2023-04-03T08:13:00;5.80;99.90
13256;DHT22;37913;48.370;10.930;2023-04-03T08:15:29;5.80;99.90
13256;DHT22;37913;48.370;10.930;2023-04-03T08:17:56;5.30;99.90
13256;DHT22;37913;48.370;10.930;2023-04-03T08:20:27;6.10;99.90
13256;DHT22;37913;48.370;10.930;2023-04-03T08:23:03;5.40;99.90
13256;DHT22;37913;48.370;10.930;2023-04-03T08:25:32;5.40;99.90
13256;DHT22;37913;48.370;10.930;2023-04-03T08:27:59;5.70;99.90
13256;DHT22;37913;48.370;10.930;2023-04-03T08:30:27;5.60;99.90
13256;DHT22;37913;48.370;10.930;2023-04-03T08:32:55;6.00;99.90
13256;DHT22;37913;48.370;10.930;2023-04-03T08:35:22;6.00;99.90
13256;DHT22;37913;48.370;10.930;2023-04-03T08:37:49;6.00;99.90
13256;DHT22;37913;48.370;10.930;2023-04-03T08:40:18;5.90;99.90
13256;DHT22;37913;48.370;10.930;2023-04-03T08:42:53;5.30;99.90
13256;DHT22;37913;48.370;10.930;2023-04-03T08:45:27;5.10;99.90
13256;DHT22;37913;48.370;10.930;2023-04-03T08:48:03;5.30;99.90
13256;DHT22;37913;48.370;10.930;2023-04-03T08:50:41;5.60;99.90
13256;DHT22;37913;48.370;10.930;2023-04-03T08:53:15;5.50;99.90
13256;DHT22;37913;48.370;10.930;2023-04-03T08:55:47;5.50;99.90
13256;DHT22;37913;48.370;10.930;2023-04-03T08:58:16;5.50;99.90
13256;DHT22;37913;48.370;10.930;2023-04-03T09:00:47;5.80;99.90
13256;DHT22;37913;48.370;10.930;2023-04-03T09:03:19;6.30;99.90
13256;DHT22;37913;48.370;10.930;2023-04-03T09:05:52;6.60;99.90
13256;DHT22;37913;48.370;10.930;2023-04-03T09:08:24;6.60;99.90
13256;DHT22;37913;48.370;10.930;2023-04-03T09:11:00;6.50;99.90
13256;DHT22;37913;48.370;10.930;2023-04-03T09:13:33;6.60;99.90
13256;DHT22;37913;48.370;10.930;2023-04-03T09:16:27;6.80;99.90
13256;DHT22;37913;48.370;10.930;2023-04-03T09:19:08;7.20;99.90
13256;DHT22;37913;48.370;10.930;2023-04-03T09:21:44;7.20;99.90
13256;DHT22;37913;48.370;10.930;2023-04-03T09:24:17;7.00;99.90
13256;DHT22;37913;48.370;10.930;2023-04-03T09:26:51;7.20;99.90
13256;DHT22;37913;48.370;10.930;2023-04-03T09:29:21;7.20;99.90
13256;DHT22;37913;48.370;10.930;2023-04-03T09:31:58;7.20;99.90
13256;DHT22;37913;48.370;10.930;2023-04-03T09:34:30;6.90;99.90
13256;DHT22;37913;48.370;10.930;2023-04-03T09:37:02;6.70;99.90
13256;DHT22;37913;48.370;10.930;2023-04-03T09:39:32;6.60;99.90
13256;DHT22;37913;48.370;10.930;2023-04-03T09:42:20;6.40;99.90
13256;DHT22;37913;48.370;10.930;2023-04-03T09:44:54;6.70;99.90
13256;DHT22;37913;48.370;10.930;2023-04-03T09:47:25;6.70;99.90
13256;DHT22;37913;48.370;10.930;2023-04-03T09:50:15;6.70;99.90
13256;DHT22;37913;48.370;10.930;2023-04-03T09:52:47;6.40;99.90
13256;DHT22;37913;48.370;10.930;2023-04-03T09:55:18;6.40;99.90
13256;DHT22;37913;48.370;10.930;2023-04-03T09:57:49;6.60;99.90
13256;DHT22;37913;48.370;10.930;2023-04-03T10:00:21;6.40;99.90
13256;DHT22;37913;48.370;10.930;2023-04-03T10:02:51;6.60;99.90
13256;DHT22;37913;48.370;10.930;2023-04-03T10:05:32;6.40;99.90
13256;DHT22;37913;48.370;10.930;2023-04-03T10:08:22;6.50;99.90
13256;DHT22;37913;48.370;10.930;2023-04-03T10:11:07;6.40;99.90
13256;DHT22;37913;48.370;10.930;2023-04-03T10:13:49;6.40;99.90
13256;DHT22;37913;48.370;10.930;2023-04-03T10:16:18;6.30;99.90
13256;DHT22;37913;48.370;10.930;2023-04-03T10:18:49;6.30;99.90
13256;DHT22;37913;48.370;10.930;2023-04-03T10:21:29;6.00;99.90
13256;DHT22;37913;48.370;10.930;2023-04-03T10:24:07;5.70;99.90
13256;DHT22;37913;48.370;10.930;2023-04-03T10:26:45;5.40;99.90
13256;DHT22;37913;48.370;10.930;2023-04-03T10:29:40;5.40;99.90
13256;DHT22;37913;48.370;10.930;2023-04-03T10:32:22;5.20;99.90
13256;DHT22;37913;48.370;10.930;2023-04-03T10:34:55;5.40;99.90
13256;DHT22;37913;48.370;10.930;2023-04-03T10:37:27;5.60;99.90
13256;DHT22;37913;48.370;10.930;2023-04-03T10:40:05;5.70;99.90
13256;DHT22;37913;48.370;10.930;2023-04-03T10:42:41;5.80;99.90
13256;DHT22;37913;48.370;10.930;2023-04-03T10:45:23;6.00;99.90
13256;DHT22;37913;48.370;10.930;2023-04-03T10:48:01;5.50;99.90
13256;DHT22;37913;48.370;10.930;2023-04-03T10:50:38;5.50;99.90
13256;DHT22;37913;48.370;10.930;2023-04-03T10:53:14;5.70;99.90
13256;DHT22;37913;48.370;10.930;2023-04-03T10:55:50;5.70;99.90
13256;DHT22;37913;48.370;10.930;2023-04-03T10:58:24;5.60;99.90
13256;DHT22;37913;48.370;10.930;2023-04-03T11:00:57;5.60;99.90
13256;DHT22;37913;48.370;10.930;2023-04-03T11:03:30;5.60;99.90
13256;DHT22;37913;48.370;10.930;2023-04-03T11:06:05;5.30;99.90
13256;DHT22;37913;48.370;10.930;2023-04-03T11:08:39;5.00;99.90
13256;DHT22;37913;48.370;10.930;2023-04-03T11:11:13;5.30;99.90
13256;DHT22;37913;48.370;10.930;2023-04-03T11:13:45;5.30;99.90
13256;DHT22;37913;48.370;10.930;2023-04-03T11:16:23;5.10;99.90
13256;DHT22;37913;48.370;10.930;2023-04-03T11:18:54;5.00;99.90
13256;DHT22;37913;48.370;10.930;2023-04-03T11:21:27;4.90;99.90
13256;DHT22;37913;48.370;10.930;2023-04-03T11:23:58;5.10;99.90
13256;DHT22;37913;48.370;10.930;2023-04-03T11:26:36;5.20;99.90
13256;DHT22;37913;48.370;10.930;2023-04-03T11:29:08;5.00;99.90
13256;DHT22;37913;48.370;10.930;2023-04-03T11:31:47;5.50;99.90
13256;DHT22;37913;48.370;10.930;2023-04-03T11:34:26;5.40;99.90
13256;DHT22;37913;48.370;10.930;2023-04-03T11:37:00;5.40;99.90
13256;DHT22;37913;48.370;10.930;2023-04-03T11:39:30;5.60;99.90
13256;DHT22;37913;48.370;10.930;2023-04-03T11:42:14;5.90;99.90
13256;DHT22;37913;48.370;10.930;2023-04-03T11:44:42;6.30;99.90
13256;DHT22;37913;48.370;10.930;2023-04-03T11:47:12;6.70;99.90
13256;DHT22;37913;48.370;10.930;2023-04-03T11:50:01;6.60;99.90
13256;DHT22;37913;48.370;10.930;2023-04-03T11:52:58;6.80;99.90
13256;DHT22;37913;48.370;10.930;2023-04-03T11:55:45;7.10;99.90
13256;DHT22;37913;48.370;10.930;2023-04-03T11:58:22;6.30;99.90
13256;DHT22;37913;48.370;10.930;2023-04-03T12:00:56;6.00;99.90
13256;DHT22;37913;48.370;10.930;2023-04-03T12:10:19;6.00;99.90
13256;DHT22;37913;48.370;10.930;2023-04-03T12:12:57;6.00;99.90
13256;DHT22;37913;48.370;10.930;2023-04-03T12:15:47;6.10;99.90
13256;DHT22;37913;48.370;10.930;2023-04-03T12:18:56;6.30;99.90
13256;DHT22;37913;48.370;10.930;2023-04-03T12:24:31;6.90;99.90
13256;DHT22;37913;48.370;10.930;2023-04-03T12:27:09;6.70;99.90
13256;DHT22;37913;48.370;10.930;2023-04-03T12:29:46;7.20;99.90
13256;DHT22;37913;48.370;10.930;2023-04-03T12:32:24;8.30;99.90
13256;DHT22;37913;48.370;10.930;2023-04-03T12:35:09;9.90;99.90
13256;DHT22;37913;48.370;10.930;2023-04-03T12:37:48;13.10;93.10
13256;DHT22;37913;48.370;10.930;2023-04-03T12:40:29;16.70;84.90
13256;DHT22;37913;48.370;10.930;2023-04-03T12:43:39;18.30;71.20
13256;DHT22;37913;48.370;10.930;2023-04-03T12:46:12;18.50;71.00
13256;DHT22;37913;48.370;10.930;2023-04-03T12:48:48;15.70;68.30
13256;DHT22;37913;48.370;10.930;2023-04-03T12:51:19;13.60;73.80
13256;DHT22;37913;48.370;10.930;2023-04-03T12:53:47;12.50;76.00
13256;DHT22;37913;48.370;10.930;2023-04-03T12:56:21;10.10;82.20
13256;DHT22;37913;48.370;10.930;2023-04-03T12:58:55;14.20;74.20
13256;DHT22;37913;48.370;10.930;2023-04-03T13:01:24;16.90;69.80
13256;DHT22;37913;48.370;10.930;2023-04-03T13:03:53;20.40;66.00
13256;DHT22;37913;48.370;10.930;2023-04-03T13:06:23;20.50;58.30
13256;DHT22;37913;48.370;10.930;2023-04-03T13:08:53;20.70;56.50
13256;DHT22;37913;48.370;10.930;2023-04-03T13:11:23;20.60;52.90
13256;DHT22;37913;48.370;10.930;2023-04-03T13:13:57;16.60;59.40
13256;DHT22;37913;48.370;10.930;2023-04-03T13:16:25;14.60;61.90
13256;DHT22;37913;48.370;10.930;2023-04-03T13:18:53;13.00;66.10
13256;DHT22;37913;48.370;10.930;2023-04-03T13:21:23;11.80;69.70
13256;DHT22;37913;48.370;10.930;2023-04-03T13:23:59;11.00;72.10
13256;DHT22;37913;48.370;10.930;2023-04-03T13:26:31;10.30;74.10
13256;DHT22;37913;48.370;10.930;2023-04-03T13:29:05;9.30;76.60
13256;DHT22;37913;48.370;10.930;2023-04-03T13:31:35;8.60;78.90
13256;DHT22;37913;48.370;10.930;2023-04-03T13:34:06;8.20;80.50
13256;DHT22;37913;48.370;10.930;2023-04-03T13:36:35;7.90;81.90
13256;DHT22;37913;48.370;10.930;2023-04-03T13:39:05;7.50;81.60
13256;DHT22;37913;48.370;10.930;2023-04-03T13:41:35;7.30;81.20
13256;DHT22;37913;48.370;10.930;2023-04-03T13:44:17;6.90;81.90
13256;DHT22;37913;48.370;10.930;2023-04-03T13:46:45;6.70;83.80
13256;DHT22;37913;48.370;10.930;2023-04-03T13:49:20;6.80;84.80
13256;DHT22;37913;48.370;10.930;2023-04-03T13:51:49;7.20;83.20
13256;DHT22;37913;48.370;10.930;2023-04-03T13:54:20;7.50;81.00
13256;DHT22;37913;48.370;10.930;2023-04-03T13:56:54;8.00;80.40
13256;DHT22;37913;48.370;10.930;2023-04-03T13:59:28;9.20;81.50
13256;DHT22;37913;48.370;10.930;2023-04-03T14:02:16;9.50;76.60
13256;DHT22;37913;48.370;10.930;2023-04-03T14:04:50;10.30;75.00
13256;DHT22;37913;48.370;10.930;2023-04-03T14:07:18;10.20;73.40
13256;DHT22;37913;48.370;10.930;2023-04-03T14:09:51;10.90;73.70
13256;DHT22;37913;48.370;10.930;2023-04-03T14:12:24;11.00;70.90
13256;DHT22;37913;48.370;10.930;2023-04-03T14:14:53;10.10;72.10
13256;DHT22;37913;48.370;10.930;2023-04-03T14:17:24;10.50;71.00
13256;DHT22;37913;48.370;10.930;2023-04-03T14:19:53;9.80;72.50
13256;DHT22;37913;48.370;10.930;2023-04-03T14:22:23;10.00;70.60
13256;DHT22;37913;48.370;10.930;2023-04-03T14:24:51;11.30;67.70
13256;DHT22;37913;48.370;10.930;2023-04-03T14:27:20;11.00;68.60
13256;DHT22;37913;48.370;10.930;2023-04-03T14:29:48;11.10;69.70
13256;DHT22;37913;48.370;10.930;2023-04-03T14:32:19;11.60;69.10
13256;DHT22;37913;48.370;10.930;2023-04-03T14:34:49;11.90;69.40
13256;DHT22;37913;48.370;10.930;2023-04-03T14:37:20;11.50;65.90
13256;DHT22;37913;48.370;10.930;2023-04-03T14:39:49;10.40;61.60
13256;DHT22;37913;48.370;10.930;2023-04-03T14:42:18;10.60;64.50
13256;DHT22;37913;48.370;10.930;2023-04-03T14:44:46;11.20;62.90
13256;DHT22;37913;48.370;10.930;2023-04-03T14:47:15;11.00;63.30
13256;DHT22;37913;48.370;10.930;2023-04-03T14:49:44;11.00;63.60
13256;DHT22;37913;48.370;10.930;2023-04-03T14:52:19;10.40;63.60
13256;DHT22;37913;48.370;10.930;2023-04-03T14:54:46;10.10;63.50
13256;DHT22;37913;48.370;10.930;2023-04-03T14:57:14;9.50;65.30
13256;DHT22;37913;48.370;10.930;2023-04-03T14:59:42;9.40;65.20
13256;DHT22;37913;48.370;10.930;2023-04-03T15:02:24;9.50;65.30
13256;DHT22;37913;48.370;10.930;2023-04-03T15:04:54;9.60;65.20
13256;DHT22;37913;48.370;10.930;2023-04-03T15:07:23;9.70;65.40
13256;DHT22;37913;48.370;10.930;2023-04-03T15:09:50;9.80;64.30
13256;DHT22;37913;48.370;10.930;2023-04-03T15:12:17;9.60;66.00
13256;DHT22;37913;48.370;10.930;2023-04-03T15:14:44;9.80;63.70
13256;DHT22;37913;48.370;10.930;2023-04-03T15:17:15;9.20;60.30
13256;DHT22;37913;48.370;10.930;2023-04-03T15:19:43;8.80;61.10
13256;DHT22;37913;48.370;10.930;2023-04-03T15:22:14;8.30;61.70
13256;DHT22;37913;48.370;10.930;2023-04-03T15:24:44;7.40;64.90
13256;DHT22;37913;48.370;10.930;2023-04-03T15:27:12;7.30;67.20
13256;DHT22;37913;48.370;10.930;2023-04-03T15:29:42;7.10;65.80
13256;DHT22;37913;48.370;10.930;2023-04-03T15:32:10;6.90;68.80
13256;DHT22;37913;48.370;10.930;2023-04-03T15:34:38;6.90;69.50
13256;DHT22;37913;48.370;10.930;2023-04-03T15:37:06;7.00;72.00
13256;DHT22;37913;48.370;10.930;2023-04-03T15:39:34;6.80;69.10
13256;DHT22;37913;48.370;10.930;2023-04-03T15:42:02;6.70;70.30
13256;DHT22;37913;48.370;10.930;2023-04-03T15:44:32;6.70;69.20
13256;DHT22;37913;48.370;10.930;2023-04-03T15:47:01;6.80;71.50
13256;DHT22;37913;48.370;10.930;2023-04-03T15:49:28;6.70;70.10
13256;DHT22;37913;48.370;10.930;2023-04-03T15:51:55;6.50;71.80
13256;DHT22;37913;48.370;10.930;2023-04-03T15:54:22;6.20;70.10
13256;DHT22;37913;48.370;10.930;2023-04-03T15:56:53;6.10;70.80
13256;DHT22;37913;48.370;10.930;2023-04-03T15:59:21;6.10;70.90
13256;DHT22;37913;48.370;10.930;2023-04-03T16:01:48;6.30;71.60